createdAt,value
2023-03-10T00:06:42.581Z,76.53
2023-03-10T00:16:48.831Z,76.64
2023-03-10T00:26:56.126Z,76.70
2023-03-10T00:37:03.638Z,76.67
2023-03-10T00:47:10.694Z,76.72
2023-03-10T00:57:15.972Z,76.59
2023-03-10T01:07:21.811Z,76.68
2023-03-10T01:17:28.265Z,76.75
2023-03-10T01:27:33.689Z,76.87
2023-03-10T01:37:39.233Z,77.19
2023-03-10T01:47:44.730Z,77.25
2023-03-10T01:57:50.746Z,77.24
2023-03-10T02:07:56.122Z,77.25
2023-03-10T02:18:01.722Z,76.43
2023-03-10T02:28:06.816Z,75.73
2023-03-10T02:38:12.369Z,75.28
2023-03-10T02:48:17.751Z,74.98
2023-03-10T02:58:23.300Z,74.54
2023-03-10T03:08:28.825Z,74.46
2023-03-10T03:18:34.387Z,74.32
2023-03-10T03:28:39.901Z,74.28
2023-03-10T03:38:45.582Z,73.84
2023-03-10T03:48:50.982Z,73.87
2023-03-10T03:58:56.601Z,73.74
2023-03-10T04:09:02.312Z,73.81
2023-03-10T04:19:08.046Z,74.24
2023-03-10T04:29:13.777Z,74.28
2023-03-10T04:39:19.176Z,74.34
2023-03-10T04:49:24.953Z,74.45
2023-03-10T04:59:30.549Z,75.09
2023-03-10T05:09:35.924Z,75.18
2023-03-10T05:19:41.345Z,75.29
2023-03-10T05:29:46.913Z,75.30
2023-03-10T05:39:52.539Z,75.47
2023-03-10T05:49:58.217Z,75.52
2023-03-10T06:00:04.089Z,75.35
2023-03-10T06:10:09.819Z,75.58
2023-03-10T06:20:15.589Z,75.78
2023-03-10T06:30:20.953Z,75.96
2023-03-10T06:40:26.747Z,75.99
2023-03-10T06:50:33.068Z,75.79
2023-03-10T07:00:39.249Z,75.78
2023-03-10T07:10:44.951Z,75.44
2023-03-10T07:20:50.749Z,74.82
2023-03-10T07:30:56.011Z,73.77
2023-03-10T07:41:02.178Z,73.31
2023-03-10T07:51:07.669Z,72.84
2023-03-10T08:01:13.097Z,73.08
2023-03-10T08:11:18.838Z,71.60
2023-03-10T08:21:23.886Z,68.40
2023-03-10T08:31:29.855Z,68.68
2023-03-10T08:41:36.325Z,66.83
2023-03-10T08:51:41.616Z,65.45
2023-03-10T09:01:46.674Z,66.29
2023-03-10T09:11:52.211Z,65.12
2023-03-10T09:21:57.806Z,64.98
2023-03-10T09:32:05.057Z,64.21
2023-03-10T09:42:12.034Z,63.77
2023-03-10T09:52:19.636Z,65.06
2023-03-10T10:02:25.867Z,66.42
2023-03-10T10:12:31.438Z,67.91
2023-03-10T10:22:37.082Z,67.93
2023-03-10T10:32:45.054Z,67.82
2023-03-10T10:42:50.747Z,67.99
2023-03-10T10:52:56.683Z,67.73
2023-03-10T11:03:02.206Z,68.04
2023-03-10T11:13:07.531Z,66.37
2023-03-10T11:23:13.419Z,67.32
2023-03-10T11:33:18.848Z,69.38
2023-03-10T11:43:24.441Z,69.99
2023-03-10T11:53:29.843Z,70.26
2023-03-10T12:03:35.589Z,70.60
2023-03-10T12:13:41.324Z,70.85
2023-03-10T12:23:46.533Z,70.72
2023-03-10T12:33:52.226Z,71.35
2023-03-10T12:43:57.944Z,71.50
2023-03-10T12:54:03.544Z,71.32
2023-03-10T13:04:09.026Z,71.47
2023-03-10T13:14:14.596Z,71.45
2023-03-10T13:24:20.005Z,71.47
2023-03-10T13:34:25.620Z,71.44
2023-03-10T13:44:31.225Z,71.78
2023-03-10T13:54:36.787Z,71.67
2023-03-10T14:04:42.362Z,71.86
2023-03-10T14:14:49.966Z,72.01
2023-03-10T14:24:57.178Z,72.07
2023-03-10T14:35:02.596Z,72.09
2023-03-10T14:45:07.901Z,72.14
2023-03-10T14:55:13.379Z,72.13
2023-03-10T15:05:19.092Z,72.11
2023-03-10T15:15:24.390Z,72.35
2023-03-10T15:25:29.397Z,72.42
2023-03-10T15:35:35.269Z,72.55
2023-03-10T15:45:40.900Z,72.50
2023-03-10T15:55:46.424Z,72.52
2023-03-10T16:05:52.065Z,72.31
2023-03-10T16:15:57.966Z,72.97
2023-03-10T16:26:03.205Z,73.28
2023-03-10T16:36:08.877Z,73.38
2023-03-10T16:46:14.534Z,73.31
2023-03-10T16:56:20.266Z,73.26
2023-03-10T17:06:25.514Z,73.36
2023-03-10T17:16:31.371Z,73.33
2023-03-10T17:26:37.017Z,73.37
2023-03-10T17:36:43.707Z,73.41
2023-03-10T17:46:50.984Z,74.06
2023-03-10T17:56:56.866Z,73.21
2023-03-10T18:07:02.308Z,74.45
2023-03-10T18:17:07.906Z,74.83
2023-03-10T18:27:15.302Z,75.14
2023-03-10T18:37:20.976Z,75.30
2023-03-10T18:47:26.294Z,75.79
2023-03-10T18:57:31.699Z,75.66
2023-03-10T19:07:37.326Z,75.91
2023-03-10T19:17:43.191Z,75.94
2023-03-10T19:27:48.511Z,75.49
2023-03-10T19:37:54.602Z,75.01
2023-03-10T19:48:00.507Z,75.07
2023-03-10T19:58:06.655Z,75.25
2023-03-10T20:08:12.311Z,75.68
2023-03-10T20:18:18.389Z,75.71
2023-03-10T20:28:25.037Z,75.52
2023-03-10T20:38:30.365Z,75.59
2023-03-10T20:48:36.536Z,75.62
2023-03-10T20:58:42.698Z,75.86
2023-03-10T21:08:48.768Z,76.05
2023-03-10T21:18:54.703Z,75.98
2023-03-10T21:29:00.810Z,76.09
2023-03-10T21:39:07.501Z,75.82
2023-03-10T21:49:13.824Z,76.03
2023-03-10T21:59:19.494Z,75.97
2023-03-10T22:09:25.619Z,75.62
2023-03-10T22:19:31.614Z,66.45
2023-03-10T22:29:38.208Z,73.33
2023-03-10T22:39:45.125Z,74.05
2023-03-10T22:49:50.940Z,75.06
2023-03-10T22:59:57.320Z,75.26
2023-03-10T23:10:04.488Z,75.42
2023-03-10T23:20:11.150Z,75.81
2023-03-10T23:30:17.946Z,75.84
2023-03-10T23:40:24.456Z,75.80
2023-03-10T23:50:31.084Z,75.67
